»·PEaware :: SNW732 KPHX-MMUN

SNW732 :: KPHX-MMUN

FLIGHT INFORMATION

Flight Status: Arrived
Operator: Unknown
More flights by this operator :: More flights under this callsign
Pilot: Andrew D. (25626)
Aircraft: BOEING 737-800
(B738)
More flights by this aircraft type
Origin: KPHX Phoenix Sky Harbor Intl
United States
Destination: MMUN Cancun Intl
Mexico
More flights between these airports :: More routes between these airports
Route: ECLPS1 PHASE ELP FST J86 JCT J15 MARCS HUB LAURL A766 KEHLI UA770 BETAS VOMAR UM782 CUN
File this flight plan on PilotEdge
Remarks: RMK / CALLSIGN "SUNWEST"
Altitude:
(Current/Filed)
35,000ft
Speed:
(Current/Filed)
460kts
Departed: 22-Nov-19 10:26 AM
Arrived: 22-Nov-19 01:50 PM
Distance/Time
Traveled:
1527nm/3:24
Distance/Time
To Go:
Arrived

Flight Plot

Page will automatically refresh every two minutes.

Flight plan parsing failed; only flown route is shown


Map Options




Map Legend


Flown Route
Filed Route
Departure Airport
Arrival Airport
Navaid (VOR, NDB)
Fix

Horizontal Profiles

Position Reports

Time Latitude Longitude Heading Altitude Ground
Speed
22-Nov-19 10:00 33.436850 -112.009425 90 1143ft 0kts
22-Nov-19 10:01 33.436850 -112.009425 90 1143ft 0kts
22-Nov-19 10:02 33.436850 -112.009425 90 1143ft 0kts
22-Nov-19 10:03 33.436850 -112.009425 90 1143ft 0kts
22-Nov-19 10:04 33.436850 -112.009425 90 1143ft 0kts
22-Nov-19 10:05 33.436850 -112.009425 90 1143ft 0kts
22-Nov-19 10:06 33.436850 -112.009425 90 1143ft 0kts
22-Nov-19 10:07 33.436850 -112.009425 90 1143ft 0kts
22-Nov-19 10:08 33.436850 -112.009425 90 1143ft 0kts
22-Nov-19 10:09 33.436850 -112.009425 90 1143ft 0kts
22-Nov-19 10:10 33.436850 -112.009425 90 1143ft 0kts
22-Nov-19 10:11 33.436850 -112.009425 90 1143ft 0kts
22-Nov-19 10:12 33.436850 -112.009425 90 1143ft 0kts
22-Nov-19 10:13 33.436850 -112.009425 90 1143ft 0kts
22-Nov-19 10:14 33.436850 -112.009425 90 1143ft 0kts
22-Nov-19 10:15 33.436850 -112.009425 90 1143ft 0kts
22-Nov-19 10:16 33.436850 -112.009905 90 1143ft 2kts
22-Nov-19 10:17 33.436851 -112.010099 89 1143ft 0kts
22-Nov-19 10:18 33.436851 -112.010099 89 1143ft 0kts
22-Nov-19 10:19 33.437289 -112.009999 0 1143ft 8kts
22-Nov-19 10:20 33.438995 -112.011511 269 1143ft 13kts
22-Nov-19 10:21 33.438997 -112.017435 270 1143ft 20kts
22-Nov-19 10:22 33.438993 -112.023830 270 1143ft 17kts
22-Nov-19 10:23 33.439008 -112.029129 279 1143ft 16kts
22-Nov-19 10:24 33.440838 -112.028733 89 1143ft 14kts
22-Nov-19 10:25 33.440892 -111.990714 89 1828ft 178kts
22-Nov-19 10:26 33.437678 -111.925701 92 3871ft 236kts
22-Nov-19 10:27 33.416770 -111.846703 131 6550ft 274kts
22-Nov-19 10:29 33.360326 -111.781699 136 9589ft 290kts
22-Nov-19 10:30 33.297751 -111.709854 135 11455ft 344kts
22-Nov-19 10:31 33.223111 -111.622495 137 12965ft 397kts
22-Nov-19 10:32 33.140779 -111.529023 139 15254ft 418kts
22-Nov-19 10:33 33.057187 -111.427236 128 17291ft 442kts
22-Nov-19 10:34 32.988603 -111.302001 125 19208ft 461kts
22-Nov-19 10:35 32.917314 -111.172154 126 21005ft 476kts
22-Nov-19 10:36 32.843556 -111.037884 126 22562ft 491kts
22-Nov-19 10:37 32.767754 -110.900229 127 23944ft 505kts
22-Nov-19 10:38 32.689383 -110.759558 128 25276ft 515kts
22-Nov-19 10:39 32.626014 -110.604524 108 26470ft 535kts
22-Nov-19 10:40 32.589277 -110.431404 107 27529ft 544kts
22-Nov-19 10:41 32.550653 -110.257274 107 28644ft 548kts
22-Nov-19 10:42 32.512135 -110.082835 108 30039ft 544kts
22-Nov-19 10:43 32.473003 -109.909792 108 31324ft 542kts
22-Nov-19 10:44 32.434809 -109.737519 104 32486ft 543kts
22-Nov-19 10:45 32.412612 -109.560406 101 33661ft 542kts
22-Nov-19 10:46 32.390520 -109.383511 101 34627ft 543kts
22-Nov-19 10:47 32.367336 -109.206348 101 35265ft 547kts
22-Nov-19 10:48 32.338745 -109.030810 106 35275ft 542kts
22-Nov-19 10:49 32.306703 -108.856301 106 35274ft 543kts
22-Nov-19 10:49 32.280523 -108.711122 105 35273ft 542kts
22-Nov-19 10:51 32.243945 -108.507895 106 35270ft 541kts
22-Nov-19 10:52 32.212176 -108.334608 106 35269ft 541kts
22-Nov-19 10:52 32.185378 -108.189520 106 35269ft 540kts
22-Nov-19 10:53 32.153223 -108.016808 106 35277ft 540kts
22-Nov-19 10:55 32.115261 -107.814649 107 35278ft 540kts
22-Nov-19 10:55 32.087960 -107.670434 107 35278ft 541kts
22-Nov-19 10:56 32.055039 -107.497733 107 35277ft 542kts
22-Nov-19 10:57 32.021844 -107.325028 107 35272ft 541kts
22-Nov-19 10:58 31.988371 -107.152084 108 35269ft 540kts
22-Nov-19 10:59 31.954780 -106.979941 108 35267ft 539kts
22-Nov-19 11:00 31.920970 -106.807973 108 35260ft 539kts
22-Nov-19 11:01 31.886946 -106.635793 108 35254ft 540kts
22-Nov-19 11:02 31.852855 -106.464407 109 35250ft 538kts
22-Nov-19 11:03 31.818142 -106.292630 109 35255ft 539kts
22-Nov-19 11:04 31.777282 -106.124091 113 35272ft 536kts
22-Nov-19 11:05 31.734773 -105.956212 113 35276ft 536kts
22-Nov-19 11:06 31.692985 -105.787931 112 35278ft 537kts
22-Nov-19 11:07 31.650895 -105.619842 113 35277ft 535kts
22-Nov-19 11:08 31.608450 -105.451984 113 35271ft 537kts
22-Nov-19 11:09 31.565831 -105.284510 113 35269ft 537kts
22-Nov-19 11:10 31.522889 -105.116816 114 35269ft 538kts
22-Nov-19 11:11 31.479450 -104.948216 114 35268ft 539kts
22-Nov-19 11:12 31.435732 -104.779528 113 35248ft 541kts
22-Nov-19 11:13 31.391859 -104.611209 114 35245ft 542kts
22-Nov-19 11:14 31.347727 -104.442924 114 35247ft 541kts
22-Nov-19 11:15 31.303224 -104.274225 114 35246ft 542kts
22-Nov-19 11:16 31.258608 -104.106090 114 35245ft 542kts
22-Nov-19 11:17 31.213835 -103.938346 114 35247ft 540kts
22-Nov-19 11:18 31.168783 -103.770518 114 35246ft 540kts
22-Nov-19 11:19 31.123610 -103.603214 114 35243ft 540kts
22-Nov-19 11:20 31.078327 -103.436452 114 35243ft 539kts
22-Nov-19 11:21 31.033103 -103.269837 114 35243ft 539kts
22-Nov-19 11:22 30.987258 -103.103412 115 35242ft 539kts
22-Nov-19 11:23 30.946786 -102.934552 104 35240ft 549kts
22-Nov-19 11:24 30.929346 -102.756919 101 35239ft 551kts
22-Nov-19 11:25 30.911186 -102.579868 102 35238ft 549kts
22-Nov-19 11:26 30.893495 -102.403632 102 35235ft 549kts
22-Nov-19 11:27 30.875002 -102.226806 102 35230ft 549kts
22-Nov-19 11:28 30.856284 -102.050726 102 35236ft 548kts
22-Nov-19 11:29 30.837356 -101.875009 102 35242ft 548kts
22-Nov-19 11:30 30.818116 -101.698687 102 35250ft 548kts
22-Nov-19 11:31 30.798710 -101.523181 102 35260ft 548kts
22-Nov-19 11:32 30.779078 -101.347628 102 35267ft 548kts
22-Nov-19 11:33 30.759339 -101.171703 102 35269ft 548kts
22-Nov-19 11:34 30.739249 -100.996694 102 35269ft 546kts
22-Nov-19 11:35 30.718790 -100.821703 103 35268ft 546kts
22-Nov-19 11:36 30.698120 -100.646826 103 35268ft 545kts
22-Nov-19 11:37 30.677302 -100.472992 103 35267ft 544kts
22-Nov-19 11:38 30.656856 -100.298935 102 35260ft 544kts
22-Nov-19 11:39 30.636121 -100.125096 102 35251ft 543kts
22-Nov-19 11:40 30.614737 -99.951516 103 35243ft 541kts
22-Nov-19 11:41 30.586422 -99.781261 114 35239ft 531kts
22-Nov-19 11:42 30.530667 -99.623545 119 35238ft 527kts
22-Nov-19 11:43 30.474739 -99.466205 119 35260ft 528kts
22-Nov-19 11:44 30.419761 -99.309008 119 36364ft 524kts
22-Nov-19 11:45 30.364595 -99.152871 119 37230ft 524kts
22-Nov-19 11:46 30.309355 -98.997452 120 38115ft 522kts
22-Nov-19 11:47 30.254239 -98.843063 120 38920ft 519kts
22-Nov-19 11:48 30.198590 -98.687878 120 38336ft 521kts
22-Nov-19 11:49 30.142818 -98.533029 120 37336ft 522kts
22-Nov-19 11:50 30.087021 -98.378769 120 37169ft 522kts
22-Nov-19 11:51 30.030765 -98.223911 120 37159ft 522kts
22-Nov-19 11:52 29.975631 -98.072129 120 37158ft 521kts
22-Nov-19 11:53 29.919030 -97.918054 119 37157ft 522kts
22-Nov-19 11:54 29.886501 -97.752864 99 37160ft 538kts
22-Nov-19 11:55 29.873550 -97.581115 100 37155ft 538kts
22-Nov-19 11:56 29.858998 -97.409538 99 37138ft 538kts
22-Nov-19 11:57 29.844247 -97.237872 100 37128ft 539kts
22-Nov-19 11:58 29.828994 -97.066407 100 37121ft 539kts
22-Nov-19 11:59 29.813416 -96.894169 100 37119ft 539kts
22-Nov-19 12:00 29.797644 -96.722354 100 37115ft 539kts
22-Nov-19 12:01 29.781686 -96.550976 100 37110ft 540kts
22-Nov-19 12:02 29.765441 -96.378969 100 37105ft 541kts
22-Nov-19 12:03 29.748970 -96.206970 100 37100ft 541kts
22-Nov-19 12:04 29.732250 -96.034751 101 37096ft 541kts
22-Nov-19 12:05 29.715311 -95.862619 101 37094ft 541kts
22-Nov-19 12:06 29.698186 -95.690895 101 37068ft 540kts
22-Nov-19 12:07 29.681111 -95.519419 101 37047ft 540kts
22-Nov-19 12:08 29.663357 -95.347903 101 37031ft 539kts
22-Nov-19 12:09 29.622618 -95.185999 121 37027ft 521kts
22-Nov-19 12:10 29.560959 -95.035872 121 37026ft 521kts
22-Nov-19 12:11 29.500481 -94.884010 120 37035ft 521kts
22-Nov-19 12:12 29.440540 -94.732443 121 37002ft 522kts
22-Nov-19 12:13 29.380129 -94.580979 121 36993ft 522kts
22-Nov-19 12:14 29.319533 -94.429739 121 36991ft 522kts
22-Nov-19 12:15 29.258805 -94.278773 121 36992ft 522kts
22-Nov-19 12:16 29.197885 -94.127955 121 36995ft 521kts
22-Nov-19 12:17 29.136819 -93.977324 121 37001ft 520kts
22-Nov-19 12:18 29.075580 -93.826876 121 37006ft 522kts
22-Nov-19 12:19 29.014414 -93.677007 120 37009ft 522kts
22-Nov-19 12:20 28.953004 -93.526991 121 37014ft 521kts
22-Nov-19 12:21 28.888398 -93.379236 131 37017ft 513kts
22-Nov-19 12:22 28.787156 -93.273695 153 37020ft 486kts
22-Nov-19 12:23 28.677299 -93.183620 152 37027ft 489kts
22-Nov-19 12:24 28.567413 -93.091882 152 37030ft 489kts
22-Nov-19 12:25 28.457786 -93.000236 152 37031ft 489kts
22-Nov-19 12:26 28.347884 -92.909047 152 37033ft 489kts
22-Nov-19 12:27 28.237898 -92.817942 151 37036ft 489kts
22-Nov-19 12:28 28.127699 -92.726634 151 37037ft 490kts
22-Nov-19 12:29 28.017535 -92.635835 151 37038ft 491kts
22-Nov-19 12:30 27.907232 -92.545287 151 37037ft 490kts
22-Nov-19 12:31 27.796797 -92.454587 151 37041ft 490kts
22-Nov-19 12:32 27.686237 -92.363875 151 37044ft 491kts
22-Nov-19 12:33 27.575607 -92.273509 151 37046ft 491kts
22-Nov-19 12:34 27.464762 -92.183212 151 37051ft 490kts
22-Nov-19 12:35 27.354374 -92.093313 151 37057ft 490kts
22-Nov-19 12:36 27.243573 -92.003633 151 37058ft 489kts
22-Nov-19 12:37 27.133010 -91.914383 150 37059ft 490kts
22-Nov-19 12:38 27.021994 -91.825240 150 37059ft 489kts
22-Nov-19 12:39 26.911246 -91.736516 150 37059ft 489kts
22-Nov-19 12:40 26.800958 -91.647823 150 37061ft 488kts
22-Nov-19 12:41 26.690451 -91.559416 150 37062ft 488kts
22-Nov-19 12:42 26.579918 -91.471269 150 37063ft 487kts
22-Nov-19 12:43 26.469416 -91.383380 149 37064ft 488kts
22-Nov-19 12:44 26.358940 -91.295709 149 37064ft 488kts
22-Nov-19 12:45 26.248100 -91.207969 150 37065ft 488kts
22-Nov-19 12:46 26.137572 -91.120675 150 37065ft 488kts
22-Nov-19 12:47 26.026668 -91.033297 150 37065ft 488kts
22-Nov-19 12:48 25.916149 -90.946441 149 37066ft 485kts
22-Nov-19 12:49 25.805989 -90.860059 149 37066ft 485kts
22-Nov-19 12:50 25.695399 -90.773523 149 37066ft 485kts
22-Nov-19 12:51 25.585117 -90.687443 149 37065ft 485kts
22-Nov-19 12:53 25.474770 -90.601509 149 37065ft 485kts
22-Nov-19 12:54 25.363982 -90.515428 149 37063ft 485kts
22-Nov-19 12:55 25.253648 -90.429894 149 37062ft 485kts
22-Nov-19 12:56 25.143224 -90.344487 149 37060ft 484kts
22-Nov-19 12:57 25.032897 -90.259341 149 37059ft 484kts
22-Nov-19 12:58 24.922479 -90.174319 149 37057ft 484kts
22-Nov-19 12:59 24.811994 -90.089427 149 37055ft 483kts
22-Nov-19 13:00 24.701871 -90.004834 149 37058ft 483kts
22-Nov-19 13:01 24.591571 -89.920533 149 37057ft 483kts
22-Nov-19 13:02 24.477079 -89.846150 168 37055ft 470kts
22-Nov-19 13:03 24.349569 -89.832612 182 37053ft 459kts
22-Nov-19 13:04 24.221941 -89.826531 182 37050ft 459kts
22-Nov-19 13:05 24.094723 -89.820101 182 37048ft 458kts
22-Nov-19 13:06 23.967318 -89.813627 182 37045ft 458kts
22-Nov-19 13:07 23.839715 -89.807177 182 37042ft 458kts
22-Nov-19 13:08 23.712099 -89.800621 182 37040ft 459kts
22-Nov-19 13:09 23.584613 -89.793881 182 37040ft 459kts
22-Nov-19 13:10 23.456633 -89.787126 182 37038ft 460kts
22-Nov-19 13:11 23.328658 -89.780360 182 37035ft 460kts
22-Nov-19 13:11 23.221888 -89.774730 181 37033ft 460kts
22-Nov-19 13:13 23.072476 -89.766873 181 37011ft 461kts
22-Nov-19 13:14 22.944168 -89.760130 181 37009ft 462kts
22-Nov-19 13:14 22.836896 -89.754512 181 37007ft 462kts
22-Nov-19 13:16 22.690642 -89.723899 147 37004ft 480kts
22-Nov-19 13:17 22.626151 -89.598536 105 37007ft 493kts
22-Nov-19 13:17 22.594655 -89.479410 108 37001ft 493kts
22-Nov-19 13:19 22.546740 -89.314575 108 37001ft 493kts
22-Nov-19 13:19 22.511891 -89.196449 108 37000ft 493kts
22-Nov-19 13:20 22.470033 -89.055579 108 36999ft 493kts
22-Nov-19 13:21 22.427984 -88.914653 108 36999ft 492kts
22-Nov-19 13:22 22.385696 -88.773442 108 36296ft 491kts
22-Nov-19 13:23 22.343470 -88.632908 108 33454ft 494kts
22-Nov-19 13:24 22.300720 -88.491124 108 30385ft 496kts
22-Nov-19 13:25 22.258705 -88.352252 108 28148ft 477kts
22-Nov-19 13:26 22.218353 -88.218684 108 25977ft 461kts
22-Nov-19 13:27 22.178820 -88.089127 108 23832ft 447kts
22-Nov-19 13:28 22.138106 -87.965008 118 21734ft 432kts
22-Nov-19 13:29 22.060041 -87.871012 139 19644ft 415kts
22-Nov-19 13:30 21.976223 -87.788978 138 17603ft 400kts
22-Nov-19 13:31 21.895445 -87.709389 138 15654ft 386kts
22-Nov-19 13:32 21.817676 -87.632356 137 13775ft 373kts
22-Nov-19 13:33 21.742314 -87.558387 137 11940ft 362kts
22-Nov-19 13:34 21.671377 -87.488838 137 11053ft 323kts
22-Nov-19 13:35 21.609184 -87.427875 137 10400ft 285kts
22-Nov-19 13:36 21.552396 -87.372384 137 9658ft 275kts
22-Nov-19 13:37 21.493831 -87.316776 141 8552ft 280kts
22-Nov-19 13:38 21.433081 -87.266031 142 7435ft 273kts
22-Nov-19 13:39 21.374179 -87.216064 141 6315ft 267kts
22-Nov-19 13:40 21.317427 -87.167831 141 5188ft 261kts
22-Nov-19 13:41 21.260926 -87.119949 141 4227ft 249kts
22-Nov-19 13:42 21.211377 -87.077992 140 3904ft 205kts
22-Nov-19 13:43 21.168610 -87.041824 141 3286ft 180kts
22-Nov-19 13:44 21.133591 -87.008027 121 2770ft 166kts
22-Nov-19 13:45 21.109031 -86.968125 122 1943ft 153kts
22-Nov-19 13:46 21.085981 -86.931317 121 1132ft 149kts
22-Nov-19 13:47 21.062823 -86.894342 121 344ft 149kts
22-Nov-19 13:48 21.045573 -86.866785 124 28ft 43kts
22-Nov-19 13:49 21.040467 -86.862222 163 28ft 10kts
22-Nov-19 13:50 21.037012 -86.864519 212 28ft 18kts
22-Nov-19 13:51 21.032807 -86.867919 285 28ft 11kts
22-Nov-19 13:52 21.034966 -86.871435 304 28ft 16kts
22-Nov-19 13:53 21.037689 -86.875769 303 28ft 14kts
22-Nov-19 13:54 21.039310 -86.878361 303 28ft 13kts
22-Nov-19 13:55 21.041900 -86.882497 303 28ft 18kts
22-Nov-19 13:56 21.044452 -86.886001 18 28ft 8kts
22-Nov-19 13:57 21.046611 -86.884066 107 28ft 5kts
22-Nov-19 13:58 21.046541 -86.883789 105 28ft 0kts
22-Nov-19 13:59 21.046541 -86.883789 105 28ft 0kts
22-Nov-19 14:00 21.046541 -86.883789 105 28ft 0kts
22-Nov-19 14:01 21.046541 -86.883789 105 28ft 0kts
22-Nov-19 14:02 21.046541 -86.883789 105 28ft 0kts
22-Nov-19 14:03 21.046541 -86.883789 105 28ft 0kts
22-Nov-19 14:04 21.046541 -86.883789 105 28ft 0kts

Navigation Log

Ident Type
Flight plan parsing failed, navigation log unavailable